createdAt,value
2018-11-01T00:02:15.766Z,91.40
2018-11-01T00:04:43.158Z,91.30
2018-11-01T00:07:10.677Z,91.10
2018-11-01T00:09:38.161Z,91.10
2018-11-01T00:12:05.696Z,91.00
2018-11-01T00:14:33.182Z,91.20
2018-11-01T00:17:00.683Z,91.10
2018-11-01T00:19:28.162Z,91.00
2018-11-01T00:21:55.670Z,90.80
2018-11-01T00:24:23.167Z,90.40
2018-11-01T00:26:50.675Z,90.20
2018-11-01T00:29:18.229Z,90.50
2018-11-01T00:31:45.701Z,90.70
2018-11-01T00:34:13.201Z,90.60
2018-11-01T00:36:40.705Z,90.30
2018-11-01T00:39:09.872Z,90.10
2018-11-01T00:41:37.669Z,90.00
2018-11-01T00:44:05.375Z,90.00
2018-11-01T00:46:32.915Z,90.00
2018-11-01T00:49:00.422Z,90.20
2018-11-01T00:51:27.860Z,90.40
2018-11-01T00:53:55.371Z,90.50
2018-11-01T00:56:22.946Z,90.50
2018-11-01T00:58:50.683Z,90.60
2018-11-01T01:01:18.188Z,90.50
2018-11-01T01:03:45.677Z,90.70
2018-11-01T01:06:15.383Z,90.20
2018-11-01T01:08:42.809Z,90.40
2018-11-01T01:11:10.257Z,90.70
2018-11-01T01:13:37.702Z,90.80
2018-11-01T01:16:05.824Z,90.80
2018-11-01T01:18:33.370Z,90.80
2018-11-01T01:21:00.836Z,90.70
2018-11-01T01:23:28.266Z,90.70
2018-11-01T01:25:55.708Z,90.30
2018-11-01T01:28:23.409Z,90.30
2018-11-01T01:30:50.874Z,90.60
2018-11-01T01:33:18.395Z,90.50
2018-11-01T01:35:45.856Z,90.50
2018-11-01T01:38:13.291Z,90.30
2018-11-01T01:40:40.699Z,90.30
2018-11-01T01:43:08.161Z,90.30
2018-11-01T01:45:35.610Z,90.40
2018-11-01T01:48:03.095Z,90.30
2018-11-01T01:50:30.615Z,90.40
2018-11-01T01:52:58.134Z,90.00
2018-11-01T01:55:25.599Z,89.60
2018-11-01T01:57:53.041Z,89.50
2018-11-01T02:00:20.791Z,89.90
2018-11-01T02:02:50.623Z,89.70
2018-11-01T02:05:18.065Z,90.10
2018-11-01T02:07:45.551Z,90.20
2018-11-01T02:10:14.290Z,90.30
2018-11-01T02:12:41.738Z,90.30
2018-11-01T02:15:11.283Z,90.30
2018-11-01T02:17:38.961Z,90.40
2018-11-01T02:20:09.270Z,90.00
2018-11-01T02:22:36.753Z,90.10
2018-11-01T02:25:04.661Z,90.00
2018-11-01T02:27:37.804Z,90.00
2018-11-01T02:30:06.911Z,90.00
2018-11-01T02:32:34.442Z,90.00
2018-11-01T02:35:02.068Z,89.50
2018-11-01T02:37:29.497Z,89.50
2018-11-01T02:39:56.951Z,89.60
2018-11-01T02:42:24.427Z,89.50
2018-11-01T02:44:51.915Z,89.20
2018-11-01T02:47:20.490Z,89.20
2018-11-01T02:49:47.937Z,89.10
2018-11-01T02:52:15.481Z,89.50
2018-11-01T02:54:42.958Z,89.50
2018-11-01T02:57:10.398Z,89.50
2018-11-01T02:59:37.923Z,90.00
2018-11-01T03:02:05.527Z,89.80
2018-11-01T03:04:32.957Z,90.00
2018-11-01T03:07:00.442Z,89.80
2018-11-01T03:09:27.967Z,89.80
2018-11-01T03:11:55.406Z,89.40
2018-11-01T03:14:23.151Z,88.70
2018-11-01T03:16:50.607Z,88.30
2018-11-01T03:19:18.035Z,88.60
2018-11-01T03:21:45.515Z,88.80
2018-11-01T03:24:13.040Z,89.10
2018-11-01T03:26:40.634Z,88.40
2018-11-01T03:29:08.109Z,87.90
2018-11-01T03:31:35.640Z,88.60
2018-11-01T03:34:03.246Z,89.20
2018-11-01T03:36:30.699Z,89.50
2018-11-01T03:38:58.296Z,90.10
2018-11-01T03:41:25.612Z,90.20
2018-11-01T03:43:53.044Z,90.40
2018-11-01T03:46:20.515Z,90.50
2018-11-01T03:48:48.069Z,90.60
2018-11-01T03:51:15.508Z,90.60
2018-11-01T03:53:43.079Z,90.60
2018-11-01T03:56:10.544Z,90.60
2018-11-01T03:58:38.032Z,90.80
2018-11-01T04:01:05.598Z,90.40
2018-11-01T04:03:33.046Z,90.40
2018-11-01T04:06:00.501Z,90.60
2018-11-01T04:08:27.982Z,90.60
2018-11-01T04:10:55.447Z,90.40
2018-11-01T04:13:22.860Z,90.40
2018-11-01T04:15:50.356Z,90.30
2018-11-01T04:18:17.830Z,90.80
2018-11-01T04:20:45.281Z,90.50
2018-11-01T04:23:12.789Z,90.60
2018-11-01T04:25:40.258Z,90.70
2018-11-01T04:28:07.723Z,90.30
2018-11-01T04:30:35.273Z,90.40
2018-11-01T04:33:02.809Z,90.50
2018-11-01T04:35:30.194Z,90.40
2018-11-01T04:37:57.652Z,90.40
2018-11-01T04:40:25.170Z,90.60
2018-11-01T04:42:52.672Z,90.60
2018-11-01T04:45:20.120Z,90.50
2018-11-01T04:47:47.822Z,90.60
2018-11-01T04:50:15.125Z,90.50
2018-11-01T04:52:42.829Z,90.70
2018-11-01T04:55:10.322Z,90.70
2018-11-01T04:57:38.230Z,90.80
2018-11-01T05:00:08.114Z,90.80
2018-11-01T05:02:35.561Z,91.10
2018-11-01T05:05:03.099Z,90.80
2018-11-01T05:07:30.522Z,90.80
2018-11-01T05:09:57.987Z,90.60
2018-11-01T05:12:25.496Z,90.60
2018-11-01T05:14:52.925Z,90.50
2018-11-01T05:17:20.390Z,90.50
2018-11-01T05:19:47.832Z,90.20
2018-11-01T05:22:15.314Z,90.10
2018-11-01T05:24:42.816Z,90.50
2018-11-01T05:27:10.340Z,90.50
2018-11-01T05:29:37.781Z,90.30
2018-11-01T05:32:05.692Z,90.00
2018-11-01T05:34:33.186Z,88.50
2018-11-01T05:37:00.635Z,88.60
2018-11-01T05:39:28.101Z,88.70
2018-11-01T05:41:55.565Z,89.50
2018-11-01T05:44:23.012Z,89.20
2018-11-01T05:46:50.503Z,88.00
2018-11-01T05:49:17.982Z,88.90
2018-11-01T05:51:45.443Z,89.90
2018-11-01T05:54:12.880Z,90.30
2018-11-01T05:56:42.390Z,90.90
2018-11-01T05:59:12.740Z,91.50
2018-11-01T06:01:45.847Z,91.70
2018-11-01T06:04:13.374Z,91.80
2018-11-01T06:06:40.855Z,91.80
2018-11-01T06:09:08.980Z,91.60
2018-11-01T06:11:36.456Z,90.80
2018-11-01T06:14:04.000Z,90.90
2018-11-01T06:16:31.506Z,90.80
2018-11-01T06:18:59.095Z,90.10
2018-11-01T06:21:26.545Z,87.70
2018-11-01T06:23:53.957Z,88.30
2018-11-01T06:26:21.388Z,89.50
2018-11-01T06:28:48.809Z,90.00
2018-11-01T06:31:16.268Z,90.50
2018-11-01T06:33:43.719Z,90.70
2018-11-01T06:36:13.508Z,90.70
2018-11-01T06:38:41.007Z,90.50
2018-11-01T06:41:08.458Z,90.70
2018-11-01T06:43:35.953Z,89.40
2018-11-01T06:46:03.373Z,89.30
2018-11-01T06:48:30.858Z,89.40
2018-11-01T06:50:58.299Z,90.00
2018-11-01T06:53:25.740Z,89.80
2018-11-01T06:55:53.189Z,89.30
2018-11-01T06:58:20.710Z,90.00
2018-11-01T07:00:48.116Z,90.20
2018-11-01T07:03:15.547Z,90.10
2018-11-01T07:05:43.022Z,90.10
2018-11-01T07:08:10.468Z,90.40
2018-11-01T07:10:37.998Z,91.00
2018-11-01T07:13:05.844Z,91.30
2018-11-01T07:15:34.381Z,91.60
2018-11-01T07:18:02.041Z,91.50
2018-11-01T07:20:29.468Z,91.80
2018-11-01T07:22:56.958Z,91.80
2018-11-01T07:25:24.512Z,91.90
2018-11-01T07:27:51.895Z,91.90
2018-11-01T07:30:19.355Z,91.20
2018-11-01T07:32:46.963Z,91.00
2018-11-01T07:35:14.818Z,90.80
2018-11-01T07:37:43.194Z,91.00
2018-11-01T07:40:12.444Z,91.10
2018-11-01T07:42:40.113Z,91.20
2018-11-01T07:45:08.547Z,91.50
2018-11-01T07:47:36.171Z,91.30
2018-11-01T07:50:03.838Z,91.40
2018-11-01T07:52:31.295Z,91.30
2018-11-01T07:54:58.760Z,91.40
2018-11-01T07:57:26.489Z,91.50
2018-11-01T07:59:53.935Z,91.30
2018-11-01T08:02:21.400Z,91.50
2018-11-01T08:04:49.032Z,91.70
2018-11-01T08:07:16.696Z,91.40
2018-11-01T08:09:44.143Z,91.10
2018-11-01T08:12:11.596Z,90.90
2018-11-01T08:14:39.150Z,91.00
2018-11-01T08:17:06.915Z,91.20
2018-11-01T08:19:34.752Z,91.10
2018-11-01T08:22:02.421Z,91.10
2018-11-01T08:24:30.160Z,91.00
2018-11-01T08:26:57.892Z,90.40
2018-11-01T08:29:25.327Z,90.50
2018-11-01T08:31:52.779Z,90.70
2018-11-01T08:34:20.261Z,90.60
2018-11-01T08:36:47.922Z,90.10
2018-11-01T08:39:15.646Z,90.00
2018-11-01T08:41:44.137Z,90.10
2018-11-01T08:44:11.678Z,90.30
2018-11-01T08:46:39.135Z,90.50
2018-11-01T08:49:07.006Z,90.50
2018-11-01T08:51:34.592Z,90.80
2018-11-01T08:54:02.229Z,90.90
2018-11-01T08:56:29.872Z,90.80
2018-11-01T08:58:57.359Z,91.00
2018-11-01T09:01:24.919Z,90.90
2018-11-01T09:03:52.606Z,91.20
2018-11-01T09:06:20.296Z,90.80
2018-11-01T09:08:47.788Z,90.90
2018-11-01T09:11:15.246Z,91.10
2018-11-01T09:13:42.772Z,91.20
2018-11-01T09:16:10.409Z,91.20
2018-11-01T09:18:38.175Z,91.30
2018-11-01T09:21:05.967Z,91.50
2018-11-01T09:23:33.776Z,91.60
2018-11-01T09:26:01.267Z,91.60
2018-11-01T09:28:28.892Z,91.40
2018-11-01T09:30:56.526Z,91.30
2018-11-01T09:33:24.161Z,91.20
2018-11-01T09:35:55.299Z,91.20
2018-11-01T09:38:22.886Z,91.30
2018-11-01T09:40:50.511Z,91.60
2018-11-01T09:43:17.973Z,91.30
2018-11-01T09:45:45.469Z,91.70
2018-11-01T09:48:12.964Z,92.00
2018-11-01T09:50:40.572Z,92.00
2018-11-01T09:53:08.034Z,91.80
2018-11-01T09:55:35.640Z,91.70
2018-11-01T09:58:03.147Z,91.60
2018-11-01T10:00:30.771Z,91.30
2018-11-01T10:02:58.349Z,91.30
2018-11-01T10:05:25.929Z,90.90
2018-11-01T10:07:53.415Z,90.70
2018-11-01T10:10:20.821Z,90.90
2018-11-01T10:12:48.274Z,91.00
2018-11-01T10:15:16.029Z,91.00
2018-11-01T10:17:43.780Z,91.80
2018-11-01T10:20:12.321Z,92.20
2018-11-01T10:22:39.956Z,91.90
2018-11-01T10:25:08.576Z,91.90
2018-11-01T10:27:36.483Z,91.70
2018-11-01T10:30:04.704Z,91.80
2018-11-01T10:32:32.113Z,92.00
2018-11-01T10:34:59.709Z,92.00
2018-11-01T10:37:27.392Z,92.00
2018-11-01T10:39:54.849Z,91.30
2018-11-01T10:42:22.274Z,90.50
2018-11-01T10:44:49.845Z,90.60
2018-11-01T10:47:17.393Z,90.10
2018-11-01T10:49:44.847Z,90.60
2018-11-01T10:52:12.456Z,90.30
2018-11-01T10:54:39.994Z,90.10
2018-11-01T10:57:07.524Z,88.80
2018-11-01T10:59:35.113Z,89.00
2018-11-01T11:02:08.260Z,89.30
2018-11-01T11:04:35.769Z,89.50
2018-11-01T11:07:05.462Z,88.70
2018-11-01T11:09:32.952Z,88.70
2018-11-01T11:12:00.471Z,89.80
2018-11-01T11:14:28.179Z,90.00
2018-11-01T11:16:55.732Z,89.30
2018-11-01T11:19:23.318Z,89.90
2018-11-01T11:21:50.786Z,88.70
2018-11-01T11:24:18.270Z,88.20
2018-11-01T11:26:45.760Z,88.30
2018-11-01T11:29:13.199Z,87.90
2018-11-01T11:31:40.666Z,87.70
2018-11-01T11:34:08.298Z,87.50
2018-11-01T11:36:35.793Z,85.90
2018-11-01T11:39:05.518Z,86.80
2018-11-01T11:41:32.961Z,87.30
2018-11-01T11:44:00.430Z,87.20
2018-11-01T11:46:27.962Z,87.70
2018-11-01T11:48:55.432Z,86.80
2018-11-01T11:51:22.968Z,87.00
2018-11-01T11:53:50.426Z,87.10
2018-11-01T11:56:18.055Z,87.50
2018-11-01T11:58:45.623Z,86.30
2018-11-01T12:01:13.160Z,87.90
2018-11-01T12:03:40.800Z,88.40
2018-11-01T12:06:08.403Z,88.90
2018-11-01T12:08:35.830Z,89.50
2018-11-01T12:11:03.450Z,89.20
2018-11-01T12:13:31.036Z,88.80
2018-11-01T12:15:58.794Z,89.20
2018-11-01T12:18:26.239Z,88.60
2018-11-01T12:20:53.805Z,89.00
2018-11-01T12:23:21.251Z,88.80
2018-11-01T12:25:48.697Z,89.10
2018-11-01T12:28:16.118Z,87.60
2018-11-01T12:30:43.580Z,88.00
2018-11-01T12:33:11.025Z,87.70
2018-11-01T12:35:38.671Z,87.70
2018-11-01T12:38:06.272Z,88.40
2018-11-01T12:40:34.219Z,88.70
2018-11-01T12:43:01.754Z,88.50
2018-11-01T12:45:29.372Z,90.00
2018-11-01T12:47:57.041Z,90.70
2018-11-01T12:50:24.759Z,91.00
2018-11-01T12:52:52.347Z,91.00
2018-11-01T12:55:19.861Z,90.50
2018-11-01T12:57:47.338Z,89.90
2018-11-01T13:00:14.881Z,89.70
2018-11-01T13:02:42.503Z,88.20
2018-11-01T13:05:11.182Z,87.40
2018-11-01T13:07:38.827Z,86.60
2018-11-01T13:10:06.469Z,86.50
2018-11-01T13:12:34.351Z,85.10
2018-11-01T13:15:02.763Z,83.60
2018-11-01T13:17:30.260Z,83.40
2018-11-01T13:19:57.851Z,82.20
2018-11-01T13:22:26.429Z,83.90
2018-11-01T13:24:53.873Z,83.00
2018-11-01T13:27:21.371Z,83.10
2018-11-01T13:29:48.840Z,83.60
2018-11-01T13:32:16.311Z,83.40
2018-11-01T13:34:43.980Z,83.60
2018-11-01T13:37:11.448Z,85.30
2018-11-01T13:39:39.018Z,87.30
2018-11-01T13:42:06.417Z,85.50
2018-11-01T13:44:34.024Z,86.00
2018-11-01T13:47:01.710Z,85.60
2018-11-01T13:49:29.125Z,85.10
2018-11-01T13:51:56.887Z,85.40
2018-11-01T13:54:24.361Z,85.20
2018-11-01T13:56:51.844Z,86.60
2018-11-01T13:59:19.494Z,86.60
2018-11-01T14:01:47.027Z,86.90
2018-11-01T14:04:14.777Z,87.90
2018-11-01T14:06:42.554Z,87.20
2018-11-01T14:09:10.209Z,87.50
2018-11-01T14:11:38.039Z,87.80
2018-11-01T14:14:06.361Z,87.70
2018-11-01T14:16:33.700Z,87.80
2018-11-01T14:19:02.536Z,88.20
2018-11-01T14:21:30.379Z,87.50
2018-11-01T14:23:58.000Z,87.40
2018-11-01T14:26:25.473Z,87.70
2018-11-01T14:28:52.922Z,88.10
2018-11-01T14:31:21.712Z,87.90
2018-11-01T14:33:49.421Z,88.50
2018-11-01T14:36:17.110Z,89.00
2018-11-01T14:38:44.708Z,88.40
2018-11-01T14:41:12.506Z,89.60
2018-11-01T14:43:40.106Z,89.80
2018-11-01T14:46:07.682Z,90.20
2018-11-01T14:48:35.362Z,90.30
2018-11-01T14:51:03.008Z,90.60
2018-11-01T14:53:31.129Z,91.00
2018-11-01T14:55:59.456Z,91.40
2018-11-01T14:58:26.980Z,91.60
2018-11-01T15:00:54.194Z,92.10
2018-11-01T15:03:21.879Z,91.30
2018-11-01T15:05:49.520Z,91.10
2018-11-01T15:08:17.159Z,91.00
2018-11-01T15:10:44.808Z,91.00
2018-11-01T15:13:12.459Z,90.90
2018-11-01T15:15:39.848Z,90.70
2018-11-01T15:18:07.513Z,90.80
2018-11-01T15:20:34.990Z,90.90
2018-11-01T15:23:02.505Z,91.20
2018-11-01T15:25:29.976Z,91.50
2018-11-01T15:27:57.444Z,91.50
2018-11-01T15:30:25.089Z,91.60
2018-11-01T15:32:52.855Z,91.60
2018-11-01T15:35:21.415Z,91.60
2018-11-01T15:37:48.878Z,91.50
2018-11-01T15:40:16.580Z,91.50
2018-11-01T15:42:44.069Z,91.60
2018-11-01T15:45:12.391Z,91.70
2018-11-01T15:47:40.449Z,91.60
2018-11-01T15:50:08.593Z,91.80
2018-11-01T15:52:36.161Z,91.50
2018-11-01T15:55:04.719Z,91.60
2018-11-01T15:57:32.158Z,91.70
2018-11-01T15:59:59.885Z,92.00
2018-11-01T16:02:27.578Z,92.10
2018-11-01T16:04:54.961Z,92.70
2018-11-01T16:07:23.756Z,93.00
2018-11-01T16:09:51.481Z,93.20
2018-11-01T16:12:18.866Z,93.40
2018-11-01T16:14:46.297Z,93.50
2018-11-01T16:17:13.969Z,93.60
2018-11-01T16:19:41.687Z,93.60
2018-11-01T16:22:09.277Z,93.70
2018-11-01T16:24:36.934Z,93.70
2018-11-01T16:27:04.882Z,93.60
2018-11-01T16:29:32.374Z,93.50
2018-11-01T16:32:00.084Z,93.20
2018-11-01T16:34:27.488Z,93.10
2018-11-01T16:36:55.013Z,93.30
2018-11-01T16:39:22.558Z,93.60
2018-11-01T16:41:50.039Z,93.80
2018-11-01T16:44:17.504Z,93.60
2018-11-01T16:46:45.212Z,93.40
2018-11-01T16:49:12.741Z,93.70
2018-11-01T16:51:40.247Z,94.00
2018-11-01T16:54:07.747Z,94.10
2018-11-01T16:56:35.342Z,94.00
2018-11-01T16:59:02.947Z,94.00
2018-11-01T17:01:30.519Z,94.00
2018-11-01T17:03:58.181Z,94.60
2018-11-01T17:06:25.649Z,94.20
2018-11-01T17:08:53.173Z,94.50
2018-11-01T17:11:20.693Z,95.50
2018-11-01T17:13:48.100Z,95.00
2018-11-01T17:16:15.929Z,94.50
2018-11-01T17:18:43.523Z,94.40
2018-11-01T17:21:11.100Z,94.70
2018-11-01T17:23:38.709Z,94.50
2018-11-01T17:26:06.280Z,94.40
2018-11-01T17:28:33.757Z,94.30
2018-11-01T17:31:01.326Z,94.20
2018-11-01T17:33:28.857Z,94.10
2018-11-01T17:35:56.469Z,94.40
2018-11-01T17:38:24.135Z,94.50
2018-11-01T17:40:51.889Z,94.30
2018-11-01T17:43:19.418Z,94.10
2018-11-01T17:45:47.084Z,93.90
2018-11-01T17:48:14.636Z,94.10
2018-11-01T17:50:42.181Z,94.40
2018-11-01T17:53:09.778Z,94.60
2018-11-01T17:55:37.280Z,94.60
2018-11-01T17:58:05.050Z,94.40
2018-11-01T18:00:35.736Z,94.10
2018-11-01T18:03:03.277Z,94.00
2018-11-01T18:05:30.865Z,94.20
2018-11-01T18:07:58.422Z,94.60
2018-11-01T18:10:25.955Z,94.70
2018-11-01T18:12:53.523Z,95.30
2018-11-01T18:15:20.991Z,95.90
2018-11-01T18:17:48.516Z,96.30
2018-11-01T18:20:16.019Z,96.00
2018-11-01T18:22:43.690Z,95.80
2018-11-01T18:25:12.773Z,95.60
2018-11-01T18:27:40.521Z,95.60
2018-11-01T18:30:09.975Z,95.60
2018-11-01T18:32:37.571Z,95.50
2018-11-01T18:35:05.560Z,95.80
2018-11-01T18:37:33.078Z,95.50
2018-11-01T18:40:00.595Z,95.40
2018-11-01T18:42:28.101Z,94.80
2018-11-01T18:44:55.543Z,94.50
2018-11-01T18:47:23.114Z,94.10
2018-11-01T18:49:50.690Z,94.70
2018-11-01T18:52:18.279Z,95.20
2018-11-01T18:54:45.891Z,95.30
2018-11-01T18:57:13.358Z,95.10
2018-11-01T18:59:40.959Z,95.20
2018-11-01T19:02:08.428Z,95.10
2018-11-01T19:04:35.893Z,94.70
2018-11-01T19:07:03.493Z,95.10
2018-11-01T19:09:33.037Z,94.50
2018-11-01T19:12:00.751Z,94.60
2018-11-01T19:14:28.373Z,93.90
2018-11-01T19:16:55.993Z,94.10
2018-11-01T19:19:23.489Z,93.70
2018-11-01T19:21:51.056Z,94.00
2018-11-01T19:24:18.599Z,93.80
2018-11-01T19:26:46.125Z,93.90
2018-11-01T19:29:17.572Z,94.00
2018-11-01T19:31:45.085Z,94.60
2018-11-01T19:34:12.688Z,94.60
2018-11-01T19:36:40.184Z,94.40
2018-11-01T19:39:08.794Z,94.20
2018-11-01T19:41:36.275Z,94.50
2018-11-01T19:44:04.002Z,94.20
2018-11-01T19:46:31.458Z,94.10
2018-11-01T19:48:58.908Z,93.90
2018-11-01T19:51:26.431Z,94.40
2018-11-01T19:53:53.924Z,94.50
2018-11-01T19:56:21.408Z,94.60
2018-11-01T19:58:49.074Z,94.80
2018-11-01T20:01:16.537Z,94.50
2018-11-01T20:03:43.976Z,94.70
2018-11-01T20:06:11.422Z,94.80
2018-11-01T20:08:38.910Z,94.80
2018-11-01T20:11:06.354Z,94.50
2018-11-01T20:13:33.914Z,94.60
2018-11-01T20:16:01.379Z,94.50
2018-11-01T20:18:28.899Z,94.40
2018-11-01T20:20:56.479Z,94.70
2018-11-01T20:23:23.956Z,94.50
2018-11-01T20:25:51.687Z,94.60
2018-11-01T20:28:18.915Z,94.80
2018-11-01T20:30:46.408Z,94.30
2018-11-01T20:33:13.853Z,94.10
2018-11-01T20:35:41.308Z,93.80
2018-11-01T20:38:08.892Z,93.80
2018-11-01T20:40:36.274Z,93.80
2018-11-01T20:43:03.764Z,94.30
2018-11-01T20:45:31.349Z,93.80
2018-11-01T20:47:58.818Z,93.80
2018-11-01T20:50:26.474Z,93.90
2018-11-01T20:52:53.927Z,93.80
2018-11-01T20:55:21.363Z,93.70
2018-11-01T20:57:49.080Z,93.90
2018-11-01T21:00:16.413Z,93.90
2018-11-01T21:02:43.939Z,93.90
2018-11-01T21:05:11.453Z,93.80
2018-11-01T21:07:38.874Z,94.00
2018-11-01T21:10:07.510Z,94.20
2018-11-01T21:12:35.151Z,94.40
2018-11-01T21:15:02.658Z,94.70
2018-11-01T21:17:30.185Z,94.50
2018-11-01T21:19:57.769Z,94.40
2018-11-01T21:22:25.271Z,94.40
2018-11-01T21:24:52.739Z,94.40
2018-11-01T21:27:20.230Z,94.40
2018-11-01T21:29:47.858Z,94.20
2018-11-01T21:32:15.305Z,94.00
2018-11-01T21:34:42.770Z,94.00
2018-11-01T21:37:10.410Z,94.00
2018-11-01T21:39:37.978Z,93.90
2018-11-01T21:42:05.610Z,94.10
2018-11-01T21:44:33.104Z,94.40
2018-11-01T21:47:00.552Z,94.40
2018-11-01T21:49:28.068Z,94.20
2018-11-01T21:51:55.518Z,94.20
2018-11-01T21:54:22.983Z,94.10
2018-11-01T21:56:50.418Z,94.40
2018-11-01T21:59:17.919Z,94.30
2018-11-01T22:01:45.431Z,94.10
2018-11-01T22:04:12.911Z,94.10
2018-11-01T22:06:40.654Z,94.10
2018-11-01T22:09:08.499Z,94.10
2018-11-01T22:11:36.181Z,93.60
2018-11-01T22:14:03.650Z,93.90
2018-11-01T22:16:31.120Z,94.00
2018-11-01T22:18:58.753Z,94.20
2018-11-01T22:21:35.218Z,94.70
2018-11-01T22:24:02.724Z,94.80
2018-11-01T22:26:30.246Z,95.20
2018-11-01T22:28:57.903Z,95.20
2018-11-01T22:31:25.388Z,95.50
2018-11-01T22:33:53.633Z,95.50
2018-11-01T22:36:21.099Z,95.60
2018-11-01T22:38:48.654Z,96.00
2018-11-01T22:41:16.046Z,95.80
2018-11-01T22:43:43.521Z,95.60
2018-11-01T22:46:10.968Z,94.40
2018-11-01T22:48:38.448Z,92.90
2018-11-01T22:51:06.050Z,92.50
2018-11-01T22:53:33.558Z,92.70
2018-11-01T22:56:00.963Z,93.10
2018-11-01T22:58:32.437Z,94.30
2018-11-01T23:00:59.910Z,94.90
2018-11-01T23:03:27.366Z,95.00
2018-11-01T23:05:54.837Z,95.40
2018-11-01T23:08:22.328Z,95.70
2018-11-01T23:10:49.759Z,96.10
2018-11-01T23:13:17.206Z,95.80
2018-11-01T23:15:44.649Z,95.60
2018-11-01T23:18:12.099Z,95.50
2018-11-01T23:20:39.606Z,95.50
2018-11-01T23:23:07.055Z,96.00
2018-11-01T23:25:34.552Z,96.20
2018-11-01T23:28:02.029Z,96.30
2018-11-01T23:30:29.568Z,96.80
2018-11-01T23:32:57.072Z,97.10
2018-11-01T23:35:24.466Z,96.80
2018-11-01T23:37:57.592Z,97.30
2018-11-01T23:40:30.781Z,97.80
2018-11-01T23:43:03.948Z,97.90
2018-11-01T23:45:36.973Z,97.60
2018-11-01T23:48:04.117Z,97.60
2018-11-01T23:50:41.751Z,97.70
2018-11-01T23:53:12.445Z,97.70
2018-11-01T23:55:39.896Z,97.70
2018-11-01T23:58:07.363Z,97.70
